createdAt,value
2022-09-13T00:01:55.484Z,84.22
2022-09-13T00:05:03.732Z,83.29
2022-09-13T00:08:14.269Z,83.81
2022-09-13T00:11:25.714Z,83.93
2022-09-13T00:14:34.058Z,84.20
2022-09-13T00:17:43.675Z,83.48
2022-09-13T00:21:07.753Z,83.42
2022-09-13T00:24:17.540Z,84.02
2022-09-13T00:27:26.006Z,83.68
2022-09-13T00:30:35.037Z,83.55
2022-09-13T00:33:43.451Z,83.73
2022-09-13T00:36:51.821Z,84.11
2022-09-13T00:40:01.494Z,84.04
2022-09-13T00:43:18.505Z,84.32
2022-09-13T00:46:37.707Z,83.95
2022-09-13T00:49:50.897Z,83.94
2022-09-13T00:53:06.626Z,84.23
2022-09-13T00:56:24.921Z,84.31
2022-09-13T00:59:42.013Z,84.40
2022-09-13T01:02:57.198Z,84.16
2022-09-13T01:06:11.073Z,84.02
2022-09-13T01:09:19.213Z,84.12
2022-09-13T01:12:40.881Z,83.94
2022-09-13T01:15:49.389Z,84.39
2022-09-13T01:18:57.765Z,84.71
2022-09-13T01:22:57.409Z,84.85
2022-09-13T01:27:16.738Z,85.04
2022-09-13T01:30:35.722Z,85.63
2022-09-13T01:34:06.096Z,84.86
2022-09-13T01:37:36.668Z,85.29
2022-09-13T01:41:04.772Z,85.19
2022-09-13T01:44:26.573Z,85.17
2022-09-13T01:47:50.392Z,84.99
2022-09-13T01:51:06.531Z,85.70
2022-09-13T01:54:23.391Z,85.61
2022-09-13T01:57:38.290Z,85.11
2022-09-13T02:00:55.928Z,84.82
2022-09-13T02:04:13.225Z,85.53
2022-09-13T02:07:26.088Z,84.75
2022-09-13T02:10:41.199Z,85.44
2022-09-13T02:13:58.130Z,84.80
2022-09-13T02:17:12.677Z,84.89
2022-09-13T02:20:29.647Z,84.42
2022-09-13T02:23:43.209Z,84.64
2022-09-13T02:26:56.850Z,85.44
2022-09-13T02:30:10.188Z,85.04
2022-09-13T02:33:25.643Z,85.18
2022-09-13T02:36:42.004Z,84.56
2022-09-13T02:39:58.476Z,84.71
2022-09-13T02:43:13.028Z,85.54
2022-09-13T02:46:38.127Z,85.54
2022-09-13T02:49:58.777Z,84.90
2022-09-13T02:53:20.813Z,84.74
2022-09-13T02:56:41.861Z,84.60
2022-09-13T02:59:50.705Z,84.58
2022-09-13T03:03:04.237Z,84.73
2022-09-13T03:06:12.745Z,85.89
2022-09-13T03:09:23.404Z,86.02
2022-09-13T03:12:52.719Z,85.13
2022-09-13T03:16:16.011Z,85.14
2022-09-13T03:19:47.839Z,84.75
2022-09-13T03:23:28.378Z,85.55
2022-09-13T03:26:53.276Z,84.28
2022-09-13T03:30:07.726Z,85.14
2022-09-13T03:33:27.446Z,85.46
2022-09-13T03:36:42.958Z,85.40
2022-09-13T03:40:00.644Z,84.78
2022-09-13T03:43:17.097Z,84.85
2022-09-13T03:46:32.542Z,84.59
2022-09-13T03:49:41.599Z,85.11
2022-09-13T03:52:57.418Z,84.83
2022-09-13T03:56:14.781Z,85.60
2022-09-13T03:59:24.444Z,85.64
2022-09-13T04:02:32.916Z,84.71
2022-09-13T04:05:41.571Z,85.61
2022-09-13T04:08:50.214Z,85.35
2022-09-13T04:11:58.896Z,84.61
2022-09-13T04:15:11.297Z,84.67
2022-09-13T04:18:20.372Z,85.22
2022-09-13T04:21:28.631Z,85.06
2022-09-13T04:24:40.078Z,85.33
2022-09-13T04:27:48.476Z,85.33
2022-09-13T04:31:00.323Z,84.88
2022-09-13T04:34:10.422Z,84.97
2022-09-13T04:37:19.199Z,85.03
2022-09-13T04:40:27.487Z,85.30
2022-09-13T04:43:35.652Z,85.29
2022-09-13T04:46:49.426Z,85.28
2022-09-13T04:49:58.329Z,85.31
2022-09-13T04:53:07.020Z,84.36
2022-09-13T04:56:17.998Z,84.82
2022-09-13T04:59:26.461Z,84.69
2022-09-13T05:02:36.449Z,84.88
2022-09-13T05:05:45.557Z,85.07
2022-09-13T05:08:57.452Z,84.54
2022-09-13T05:12:06.524Z,83.87
2022-09-13T05:15:14.709Z,84.09
2022-09-13T05:18:24.582Z,84.22
2022-09-13T05:21:33.594Z,83.69
2022-09-13T05:24:42.039Z,84.02
2022-09-13T05:27:50.141Z,83.46
2022-09-13T05:31:00.446Z,83.07
2022-09-13T05:34:13.982Z,83.10
2022-09-13T05:37:22.357Z,83.21
2022-09-13T05:40:32.714Z,82.74
2022-09-13T05:43:41.012Z,82.77
2022-09-13T05:46:49.745Z,82.71
2022-09-13T05:50:10.222Z,82.49
2022-09-13T05:53:18.818Z,81.48
2022-09-13T05:56:30.138Z,82.10
2022-09-13T05:59:38.310Z,81.53
2022-09-13T06:02:46.576Z,81.60
2022-09-13T06:05:59.702Z,81.74
2022-09-13T06:09:11.019Z,81.05
2022-09-13T06:12:21.067Z,80.18
2022-09-13T06:15:29.648Z,77.61
2022-09-13T06:18:40.530Z,77.27
2022-09-13T06:21:53.421Z,74.51
2022-09-13T06:25:01.962Z,73.21
2022-09-13T06:28:11.080Z,73.07
2022-09-13T06:31:23.373Z,74.30
2022-09-13T06:34:34.545Z,73.72
2022-09-13T06:37:47.279Z,72.23
2022-09-13T06:41:02.988Z,68.43
2022-09-13T06:44:11.492Z,63.09
2022-09-13T06:47:19.742Z,57.57
2022-09-13T06:50:28.233Z,52.17
2022-09-13T06:53:38.995Z,49.00
2022-09-13T06:56:47.319Z,46.12
2022-09-13T06:59:55.843Z,44.91
2022-09-13T07:03:04.368Z,44.21
2022-09-13T07:06:19.111Z,44.45
2022-09-13T07:09:31.288Z,44.38
2022-09-13T07:12:42.639Z,43.88
2022-09-13T07:15:55.110Z,45.99
2022-09-13T07:19:07.372Z,47.82
2022-09-13T07:22:16.701Z,49.15
2022-09-13T07:25:34.387Z,48.70
2022-09-13T07:28:46.360Z,48.04
2022-09-13T07:31:56.743Z,49.03
2022-09-13T07:35:06.796Z,49.32
2022-09-13T07:38:15.245Z,50.54
2022-09-13T07:41:27.927Z,50.49
2022-09-13T07:44:36.349Z,49.00
2022-09-13T07:47:44.708Z,47.83
2022-09-13T07:51:01.697Z,47.89
2022-09-13T07:54:15.001Z,49.51
2022-09-13T07:57:24.699Z,49.38
2022-09-13T08:00:33.432Z,51.08
2022-09-13T08:03:42.599Z,50.67
2022-09-13T08:06:51.828Z,50.14
2022-09-13T08:10:09.200Z,51.28
2022-09-13T08:13:26.558Z,49.22
2022-09-13T08:16:36.888Z,50.13
2022-09-13T08:19:48.270Z,48.81
2022-09-13T08:23:03.804Z,46.42
2022-09-13T08:26:21.228Z,46.69
2022-09-13T08:30:30.019Z,45.49
2022-09-13T08:33:52.379Z,44.71
2022-09-13T08:37:01.275Z,47.30
2022-09-13T08:40:18.280Z,46.45
2022-09-13T08:43:49.934Z,45.94
2022-09-13T08:47:31.421Z,44.73
2022-09-13T08:50:45.420Z,43.48
2022-09-13T08:53:53.993Z,45.44
2022-09-13T08:57:21.123Z,42.53
2022-09-13T09:00:44.075Z,42.52
2022-09-13T09:04:11.699Z,42.26
2022-09-13T09:07:25.407Z,42.72
2022-09-13T09:10:42.019Z,43.83
2022-09-13T09:13:58.641Z,41.68
2022-09-13T09:17:17.681Z,43.25
2022-09-13T09:20:37.995Z,45.24
2022-09-13T09:23:52.497Z,43.64
2022-09-13T09:27:11.775Z,43.41
2022-09-13T09:30:20.561Z,43.14
2022-09-13T09:33:57.271Z,43.11
2022-09-13T09:37:21.071Z,45.00
2022-09-13T09:40:31.795Z,43.05
2022-09-13T09:43:47.172Z,43.13
2022-09-13T09:47:02.513Z,42.99
2022-09-13T09:50:17.959Z,41.78
2022-09-13T09:53:36.651Z,43.81
2022-09-13T09:56:55.744Z,42.49
2022-09-13T10:00:14.643Z,43.45
2022-09-13T10:03:28.737Z,43.22
2022-09-13T10:06:40.695Z,42.68
2022-09-13T10:10:21.701Z,44.41
2022-09-13T10:13:33.808Z,42.39
2022-09-13T10:16:43.639Z,42.95
2022-09-13T10:20:02.812Z,43.52
2022-09-13T10:23:20.050Z,42.91
2022-09-13T10:26:37.104Z,42.89
2022-09-13T10:29:55.528Z,40.82
2022-09-13T10:33:07.285Z,45.37
2022-09-13T10:36:48.296Z,43.41
2022-09-13T10:40:14.300Z,43.29
2022-09-13T10:43:30.295Z,44.95
2022-09-13T10:46:45.147Z,44.11
2022-09-13T10:50:02.080Z,45.32
2022-09-13T10:53:40.429Z,42.29
2022-09-13T10:56:50.815Z,42.50
2022-09-13T11:00:00.839Z,41.63
2022-09-13T11:03:34.137Z,43.74
2022-09-13T11:06:52.368Z,39.92
2022-09-13T11:10:19.216Z,43.00
2022-09-13T11:13:48.596Z,40.74
2022-09-13T11:17:15.461Z,41.29
2022-09-13T11:20:39.833Z,41.32
2022-09-13T11:24:14.138Z,40.28
2022-09-13T11:27:37.146Z,37.53
2022-09-13T11:31:12.273Z,41.79
2022-09-13T11:34:45.618Z,37.39
2022-09-13T11:38:07.024Z,35.12
2022-09-13T11:41:35.480Z,32.70
2022-09-13T11:45:23.746Z,32.47
2022-09-13T11:49:10.457Z,32.33
2022-09-13T11:52:44.174Z,34.38
2022-09-13T11:56:06.638Z,35.58
2022-09-13T11:59:26.586Z,36.85
2022-09-13T12:02:46.533Z,33.99
2022-09-13T12:06:02.997Z,33.74
2022-09-13T12:09:22.060Z,30.32
2022-09-13T12:15:52.311Z,32.22
2022-09-13T12:19:06.339Z,29.99
2022-09-13T12:22:15.866Z,32.25
2022-09-13T12:25:35.153Z,32.73
2022-09-13T12:28:54.402Z,33.80
2022-09-13T12:32:07.867Z,32.25
2022-09-13T12:35:28.430Z,31.39
2022-09-13T12:39:31.500Z,36.22
2022-09-13T12:43:24.113Z,34.06
2022-09-13T12:47:18.270Z,34.81
2022-09-13T12:50:58.417Z,35.55
2022-09-13T12:54:48.060Z,36.77
2022-09-13T12:58:16.663Z,34.64
2022-09-13T13:01:31.205Z,35.75
2022-09-13T13:04:45.241Z,36.04
2022-09-13T13:08:00.024Z,36.22
2022-09-13T13:11:13.793Z,36.07
2022-09-13T13:14:47.448Z,35.39
2022-09-13T13:17:59.036Z,35.46
2022-09-13T13:21:47.077Z,33.94
2022-09-13T13:24:56.963Z,33.39
2022-09-13T13:28:33.815Z,33.76
2022-09-13T13:31:47.450Z,33.04
2022-09-13T13:34:55.860Z,32.04
2022-09-13T13:38:42.546Z,33.69
2022-09-13T13:41:56.411Z,32.84
2022-09-13T13:45:29.342Z,32.13
2022-09-13T13:48:42.203Z,32.15
2022-09-13T13:52:40.078Z,31.75
2022-09-13T13:56:08.924Z,31.26
2022-09-13T13:59:26.830Z,32.83
2022-09-13T14:02:46.519Z,33.19
2022-09-13T14:06:12.414Z,31.07
2022-09-13T14:09:39.897Z,32.75
2022-09-13T14:13:16.910Z,30.45
2022-09-13T14:16:52.100Z,31.05
2022-09-13T14:20:06.489Z,30.89
2022-09-13T14:23:20.157Z,31.64
2022-09-13T14:26:28.490Z,31.94
2022-09-13T14:29:37.352Z,30.74
2022-09-13T14:32:49.027Z,30.74
2022-09-13T14:36:05.101Z,30.42
2022-09-13T14:39:14.756Z,32.01
2022-09-13T14:42:23.671Z,32.93
2022-09-13T14:45:39.257Z,33.52
2022-09-13T14:48:52.565Z,31.20
2022-09-13T14:52:07.158Z,32.21
2022-09-13T14:55:23.885Z,32.17
2022-09-13T14:58:45.487Z,34.27
2022-09-13T15:02:02.869Z,34.95
2022-09-13T15:05:30.862Z,35.65
2022-09-13T15:08:47.334Z,33.69
2022-09-13T15:12:02.914Z,34.32
2022-09-13T15:15:35.346Z,37.52
2022-09-13T15:18:51.141Z,36.05
2022-09-13T15:22:15.229Z,36.85
2022-09-13T15:25:28.013Z,34.84
2022-09-13T15:28:53.706Z,35.54
2022-09-13T15:32:03.007Z,35.65
2022-09-13T15:35:23.495Z,34.96
2022-09-13T15:38:35.332Z,35.91
2022-09-13T15:41:58.121Z,37.06
2022-09-13T15:45:13.942Z,35.84
2022-09-13T15:48:32.619Z,36.25
2022-09-13T15:51:52.930Z,37.13
2022-09-13T15:55:04.265Z,38.04
2022-09-13T15:58:14.212Z,38.07
2022-09-13T16:01:31.134Z,39.11
2022-09-13T16:04:42.352Z,39.74
2022-09-13T16:07:52.707Z,40.36
2022-09-13T16:11:01.428Z,41.57
2022-09-13T16:14:12.334Z,43.43
2022-09-13T16:17:26.948Z,43.91
2022-09-13T16:20:37.392Z,45.80
2022-09-13T16:23:46.126Z,45.47
2022-09-13T16:26:56.720Z,46.97
2022-09-13T16:30:06.503Z,47.28
2022-09-13T16:33:16.392Z,48.17
2022-09-13T16:36:28.721Z,48.09
2022-09-13T16:39:37.113Z,47.83
2022-09-13T16:42:45.693Z,49.89
2022-09-13T16:45:54.075Z,50.25
2022-09-13T16:49:04.721Z,52.01
2022-09-13T16:52:13.120Z,52.37
2022-09-13T16:55:21.520Z,52.92
2022-09-13T16:58:38.643Z,53.23
2022-09-13T17:01:47.157Z,53.66
2022-09-13T17:04:56.920Z,54.34
2022-09-13T17:08:05.898Z,54.63
2022-09-13T17:11:18.503Z,54.98
2022-09-13T17:14:27.542Z,55.16
2022-09-13T17:17:36.424Z,55.75
2022-09-13T17:20:48.573Z,55.73
2022-09-13T17:23:56.887Z,56.47
2022-09-13T17:27:08.000Z,57.07
2022-09-13T17:30:17.077Z,57.33
2022-09-13T17:33:25.328Z,56.97
2022-09-13T17:36:40.195Z,57.80
2022-09-13T17:39:49.344Z,58.85
2022-09-13T17:42:58.412Z,59.97
2022-09-13T17:46:13.295Z,60.45
2022-09-13T17:49:26.388Z,60.96
2022-09-13T17:52:36.426Z,61.25
2022-09-13T17:55:53.208Z,61.58
2022-09-13T17:59:10.461Z,62.01
2022-09-13T18:02:28.444Z,61.64
2022-09-13T18:05:42.700Z,62.30
2022-09-13T18:08:55.588Z,62.17
2022-09-13T18:12:08.957Z,62.27
2022-09-13T18:15:22.936Z,63.39
2022-09-13T18:18:33.767Z,63.88
2022-09-13T18:21:42.493Z,64.24
2022-09-13T18:25:01.475Z,64.58
2022-09-13T18:28:10.498Z,65.19
2022-09-13T18:31:22.447Z,65.10
2022-09-13T18:34:30.815Z,66.34
2022-09-13T18:37:39.866Z,66.74
2022-09-13T18:41:03.869Z,66.43
2022-09-13T18:44:20.217Z,67.02
2022-09-13T18:47:33.036Z,66.60
2022-09-13T18:50:44.504Z,67.25
2022-09-13T18:53:53.355Z,67.23
2022-09-13T18:57:03.767Z,67.95
2022-09-13T19:00:15.779Z,68.21
2022-09-13T19:03:25.243Z,68.86
2022-09-13T19:06:39.838Z,69.17
2022-09-13T19:09:50.716Z,68.56
2022-09-13T19:13:02.606Z,68.88
2022-09-13T19:16:15.694Z,68.56
2022-09-13T19:19:24.836Z,69.27
2022-09-13T19:22:33.715Z,69.59
2022-09-13T19:25:42.239Z,69.74
2022-09-13T19:28:59.730Z,70.22
2022-09-13T19:32:08.763Z,70.50
2022-09-13T19:35:18.163Z,70.65
2022-09-13T19:38:27.420Z,71.05
2022-09-13T19:41:38.332Z,71.09
2022-09-13T19:44:50.463Z,71.48
2022-09-13T19:51:37.828Z,71.80
2022-09-13T19:54:48.992Z,71.71
2022-09-13T19:57:57.467Z,71.56
2022-09-13T20:01:12.096Z,71.94
2022-09-13T20:04:25.169Z,72.22
2022-09-13T20:07:33.553Z,72.38
2022-09-13T20:10:44.148Z,72.41
2022-09-13T20:13:52.939Z,72.76
2022-09-13T20:17:07.331Z,73.19
2022-09-13T20:20:16.093Z,73.22
2022-09-13T20:23:29.410Z,73.11
2022-09-13T20:26:38.149Z,72.96
2022-09-13T20:29:48.057Z,73.09
2022-09-13T20:32:57.974Z,73.53
2022-09-13T20:36:13.655Z,73.92
2022-09-13T20:39:21.920Z,73.85
2022-09-13T20:42:36.045Z,73.72
2022-09-13T20:45:44.279Z,74.08
2022-09-13T20:49:04.756Z,74.33
2022-09-13T20:52:14.286Z,74.13
2022-09-13T20:55:22.523Z,74.59
2022-09-13T20:58:31.165Z,75.02
2022-09-13T21:01:40.234Z,75.34
2022-09-13T21:04:49.831Z,75.37
2022-09-13T21:08:15.820Z,75.52
2022-09-13T21:11:29.234Z,74.95
2022-09-13T21:14:39.948Z,75.35
2022-09-13T21:17:48.555Z,75.97
2022-09-13T21:20:59.687Z,75.33
2022-09-13T21:24:14.466Z,74.48
2022-09-13T21:27:23.009Z,74.98
2022-09-13T21:30:31.315Z,75.24
2022-09-13T21:33:39.763Z,74.66
2022-09-13T21:36:49.818Z,75.13
2022-09-13T21:39:58.261Z,75.03
2022-09-13T21:43:06.820Z,75.42
2022-09-13T21:46:18.667Z,75.67
2022-09-13T21:49:27.686Z,76.14
2022-09-13T21:52:37.283Z,76.23
2022-09-13T21:55:46.537Z,75.86
2022-09-13T21:58:59.287Z,76.07
2022-09-13T22:02:08.190Z,75.73
2022-09-13T22:05:16.799Z,75.40
2022-09-13T22:08:27.023Z,75.09
2022-09-13T22:11:39.112Z,75.97
2022-09-13T22:14:48.519Z,77.57
2022-09-13T22:17:56.647Z,77.77
2022-09-13T22:21:07.189Z,78.10
2022-09-13T22:24:19.624Z,77.35
2022-09-13T22:27:28.347Z,78.00
2022-09-13T22:30:36.786Z,77.09
2022-09-13T22:33:45.557Z,77.19
2022-09-13T22:36:55.771Z,77.03
2022-09-13T22:40:06.542Z,76.91
2022-09-13T22:43:14.977Z,76.27
2022-09-13T22:46:27.220Z,76.79
2022-09-13T22:49:35.398Z,76.45
2022-09-13T22:52:43.652Z,76.56
2022-09-13T22:55:54.683Z,76.72
2022-09-13T22:59:06.184Z,76.76
2022-09-13T23:02:14.381Z,76.55
2022-09-13T23:05:22.503Z,76.59
2022-09-13T23:08:31.136Z,76.63
2022-09-13T23:11:42.054Z,76.97
2022-09-13T23:14:50.146Z,76.50
2022-09-13T23:17:59.100Z,76.68
2022-09-13T23:21:07.952Z,77.17
2022-09-13T23:24:19.125Z,77.10
2022-09-13T23:27:29.021Z,76.72
2022-09-13T23:30:37.311Z,76.50
2022-09-13T23:33:48.381Z,76.89
2022-09-13T23:36:56.573Z,76.66
2022-09-13T23:40:05.115Z,76.59
2022-09-13T23:43:14.795Z,76.63
2022-09-13T23:46:23.398Z,76.95
2022-09-13T23:49:31.845Z,76.74
2022-09-13T23:52:40.253Z,76.97
2022-09-13T23:55:49.136Z,76.61
2022-09-13T23:59:01.337Z,76.94
